createdAt,value
2016-11-22T00:00:38.604Z,50.01
2016-11-22T00:01:52.157Z,50.11
2016-11-22T00:03:04.750Z,50.21
2016-11-22T00:04:17.771Z,50.5
2016-11-22T00:05:31.270Z,50.79
2016-11-22T00:07:15.370Z,51.27
2016-11-22T00:08:28.388Z,51.65
2016-11-22T00:09:41.918Z,51.65
2016-11-22T00:10:55.442Z,51.75
2016-11-22T00:12:08.461Z,51.75
2016-11-22T00:13:21.470Z,52.23
2016-11-22T00:14:34.544Z,51.75
2016-11-22T00:15:48.064Z,52.21
2016-11-22T00:17:01.604Z,52.43
2016-11-22T00:18:14.607Z,52.43
2016-11-22T00:19:28.141Z,51.82
2016-11-22T00:20:40.678Z,51.95
2016-11-22T00:21:53.629Z,52.23
2016-11-22T00:23:07.123Z,51.56
2016-11-22T00:24:19.557Z,52.04
2016-11-22T00:25:33.147Z,51.82
2016-11-22T00:26:46.163Z,51.56
2016-11-22T00:27:59.143Z,51.46
2016-11-22T00:29:12.169Z,51.37
2016-11-22T00:30:25.237Z,51.63
2016-11-22T00:31:38.817Z,51.46
2016-11-22T00:32:50.799Z,51.75
2016-11-22T00:34:03.923Z,51.25
2016-11-22T00:35:17.417Z,51.65
2016-11-22T00:36:30.896Z,51.65
2016-11-22T00:37:43.442Z,51.53
2016-11-22T00:38:56.964Z,51.85
2016-11-22T00:40:10.529Z,51.53
2016-11-22T00:41:23.481Z,51.73
2016-11-22T00:42:35.923Z,51.73
2016-11-22T00:43:49.501Z,51.75
2016-11-22T00:45:02.970Z,51.82
2016-11-22T00:46:15.957Z,52.01
2016-11-22T00:47:27.868Z,51.73
2016-11-22T00:48:40.887Z,52.01
2016-11-22T00:49:54.478Z,52.11
2016-11-22T00:51:07.450Z,52.5
2016-11-22T00:52:19.934Z,51.92
2016-11-22T00:53:31.353Z,51.63
2016-11-22T00:54:44.913Z,51.53
2016-11-22T00:55:58.422Z,50.96
2016-11-22T00:57:11.911Z,51.15
2016-11-22T00:58:25.411Z,50.96
2016-11-22T00:59:38.478Z,51.25
2016-11-22T01:00:51.524Z,50.47
2016-11-22T01:02:04.090Z,50.47
2016-11-22T01:03:17.609Z,50.38
2016-11-22T01:04:30.099Z,49.99
2016-11-22T01:05:43.593Z,49.9
2016-11-22T01:06:57.197Z,49.8
2016-11-22T01:08:10.784Z,49.8
2016-11-22T01:09:23.215Z,49.8
2016-11-22T01:10:36.236Z,49.8
2016-11-22T01:11:49.189Z,49.6
2016-11-22T01:13:02.170Z,49.9
2016-11-22T01:14:15.200Z,49.6
2016-11-22T01:15:28.767Z,49.51
2016-11-22T01:16:41.765Z,49.7
2016-11-22T01:17:55.288Z,49.8
2016-11-22T01:19:08.284Z,50.18
2016-11-22T01:20:20.204Z,49.51
2016-11-22T01:21:33.208Z,49.32
2016-11-22T01:22:45.760Z,49.51
2016-11-22T01:23:58.825Z,49.51
2016-11-22T01:25:11.302Z,49.6
2016-11-22T01:26:24.885Z,49.6
2016-11-22T01:27:37.922Z,49.9
2016-11-22T01:28:50.900Z,49.51
2016-11-22T01:30:04.429Z,49.32
2016-11-22T01:31:17.516Z,49.6
2016-11-22T01:32:30.526Z,49.6
2016-11-22T01:33:44.062Z,49.51
2016-11-22T01:34:57.114Z,49.6
2016-11-22T01:36:10.625Z,49.9
2016-11-22T01:37:24.123Z,49.8
2016-11-22T01:38:37.707Z,49.9
2016-11-22T01:39:50.217Z,49.99
2016-11-22T01:41:02.139Z,49.99
2016-11-22T01:42:15.223Z,50.09
2016-11-22T01:43:28.264Z,50.18
2016-11-22T01:44:41.267Z,50.28
2016-11-22T01:45:54.832Z,50.18
2016-11-22T01:47:07.300Z,50.47
2016-11-22T01:48:19.780Z,50.28
2016-11-22T01:49:32.864Z,50.67
2016-11-22T01:50:46.451Z,50.57
2016-11-22T01:51:59.918Z,50.96
2016-11-22T01:53:13.447Z,51.05
2016-11-22T01:54:26.412Z,51.44
2016-11-22T01:55:39.401Z,50.96
2016-11-22T01:56:52.979Z,51.34
2016-11-22T01:58:06.537Z,51.53
2016-11-22T01:59:19.003Z,51.32
2016-11-22T02:00:31.387Z,51.34
2016-11-22T02:01:43.930Z,51.32
2016-11-22T02:02:56.919Z,51.44
2016-11-22T02:04:10.478Z,51.61
2016-11-22T02:05:23.468Z,51.89
2016-11-22T02:06:35.922Z,51.41
2016-11-22T02:07:49.477Z,51.7
2016-11-22T02:09:02.962Z,51.99
2016-11-22T02:10:15.968Z,51.63
2016-11-22T02:11:28.947Z,52.01
2016-11-22T02:12:42.008Z,51.51
2016-11-22T02:13:55.537Z,51.92
2016-11-22T02:15:08.064Z,51.61
2016-11-22T02:16:21.639Z,51.8
2016-11-22T02:17:34.082Z,52.28
2016-11-22T02:18:46.591Z,51.89
2016-11-22T02:19:59.642Z,52.19
2016-11-22T02:22:56.696Z,52.47
2016-11-22T02:24:10.321Z,51.8
2016-11-22T02:25:23.363Z,51.89
2016-11-22T02:26:36.892Z,51.89
2016-11-22T02:27:49.399Z,51.61
2016-11-22T02:29:33.539Z,51.32
2016-11-22T02:30:46.025Z,50.84
2016-11-22T02:31:59.570Z,50.84
2016-11-22T02:33:12.057Z,51.03
2016-11-22T02:34:25.071Z,51.41
2016-11-22T02:35:38.076Z,51.22
2016-11-22T02:36:49.967Z,51.41
2016-11-22T02:38:02.968Z,51.25
2016-11-22T02:39:16.038Z,51.32
2016-11-22T02:40:29.081Z,51.22
2016-11-22T02:41:42.050Z,51.34
2016-11-22T02:42:55.546Z,50.93
2016-11-22T02:44:08.588Z,51.12
2016-11-22T02:45:21.684Z,51.12
2016-11-22T02:46:34.142Z,51.12
2016-11-22T02:47:47.230Z,51.73
2016-11-22T02:48:59.684Z,51.51
2016-11-22T02:50:12.178Z,51.63
2016-11-22T02:51:25.289Z,51.82
2016-11-22T02:52:37.755Z,51.92
2016-11-22T02:53:50.288Z,52.11
2016-11-22T02:55:03.243Z,51.7
2016-11-22T02:56:46.877Z,51.51
2016-11-22T02:57:59.451Z,51.73
2016-11-22T02:59:12.412Z,51.8
2016-11-22T03:00:24.932Z,52.19
2016-11-22T03:01:37.944Z,51.8
2016-11-22T03:02:50.992Z,52.28
2016-11-22T03:04:04.575Z,52.47
2016-11-22T03:05:18.086Z,52.28
2016-11-22T03:06:30.010Z,52.57
2016-11-22T03:07:43.052Z,52.47
2016-11-22T03:08:56.544Z,52.67
2016-11-22T03:10:09.074Z,52.67
2016-11-22T03:11:22.144Z,52.67
2016-11-22T03:12:35.741Z,53.15
2016-11-22T03:13:49.267Z,52.57
2016-11-22T03:15:02.283Z,52.57
2016-11-22T03:16:14.802Z,52.95
2016-11-22T03:17:28.317Z,53.05
2016-11-22T03:18:41.260Z,53.05
2016-11-22T03:19:54.829Z,53.05
2016-11-22T03:21:07.281Z,53.05
2016-11-22T03:22:20.295Z,52.95
2016-11-22T03:23:33.285Z,53.15
2016-11-22T03:24:46.240Z,53.34
2016-11-22T03:25:59.277Z,53.53
2016-11-22T03:27:12.252Z,53.44
2016-11-22T03:29:28.029Z,54.02
2016-11-22T03:30:40.492Z,54.02
2016-11-22T03:31:54.074Z,53.92
2016-11-22T03:33:07.659Z,53.83
2016-11-22T03:34:19.109Z,53.83
2016-11-22T03:35:32.181Z,53.83
2016-11-22T03:36:44.700Z,53.83
2016-11-22T03:37:57.191Z,53.83
2016-11-22T03:39:09.136Z,53.73
2016-11-22T03:40:22.164Z,53.89
2016-11-22T03:41:35.139Z,53.7
2016-11-22T03:42:48.155Z,53.8
2016-11-22T03:44:01.168Z,53.89
2016-11-22T03:45:14.123Z,53.8
2016-11-22T03:46:27.679Z,53.7
2016-11-22T03:47:40.199Z,53.89
2016-11-22T03:48:53.173Z,53.89
2016-11-22T03:50:05.810Z,53.7
2016-11-22T03:51:18.881Z,53.89
2016-11-22T03:52:31.884Z,53.99
2016-11-22T03:54:15.526Z,53.89
2016-11-22T03:55:28.075Z,53.8
2016-11-22T03:56:41.079Z,53.8
2016-11-22T03:57:53.004Z,53.99
2016-11-22T03:59:06.478Z,53.8
2016-11-22T04:00:18.418Z,53.89
2016-11-22T04:01:31.960Z,53.89
2016-11-22T04:02:43.296Z,54.09
2016-11-22T04:03:56.881Z,53.7
2016-11-22T04:05:08.861Z,53.8
2016-11-22T04:06:21.891Z,53.8
2016-11-22T04:07:35.413Z,53.8
2016-11-22T04:08:47.930Z,53.89
2016-11-22T04:10:00.377Z,53.99
2016-11-22T04:11:13.364Z,53.99
2016-11-22T04:12:26.457Z,53.8
2016-11-22T04:13:37.895Z,53.99
2016-11-22T04:14:50.917Z,53.99
2016-11-22T04:16:04.557Z,53.8
2016-11-22T04:17:17.578Z,53.7
2016-11-22T04:18:30.062Z,53.99
2016-11-22T04:19:42.614Z,54.09
2016-11-22T04:20:55.606Z,53.99
2016-11-22T04:22:09.195Z,53.99
2016-11-22T04:23:21.690Z,54.28
2016-11-22T04:24:34.687Z,54.57
2016-11-22T04:25:47.710Z,54.09
2016-11-22T04:27:01.172Z,54.57
2016-11-22T04:28:13.590Z,53.99
2016-11-22T04:29:26.650Z,53.99
2016-11-22T04:30:39.050Z,54.47
2016-11-22T04:31:50.977Z,54.28
2016-11-22T04:33:02.927Z,54.28
2016-11-22T04:34:14.840Z,54.09
2016-11-22T04:35:27.805Z,54.28
2016-11-22T04:36:41.366Z,54.38
2016-11-22T04:37:54.379Z,54.86
2016-11-22T04:39:07.927Z,54.96
2016-11-22T04:40:20.443Z,55.24
2016-11-22T04:41:32.931Z,55.05
2016-11-22T04:42:45.985Z,54.76
2016-11-22T04:43:58.994Z,54.47
2016-11-22T04:45:12.013Z,54.57
2016-11-22T04:46:24.514Z,54.57
2016-11-22T04:47:36.516Z,54.09
2016-11-22T04:48:49.523Z,54.09
2016-11-22T04:50:02.014Z,53.8
2016-11-22T04:51:15.602Z,53.99
2016-11-22T04:52:28.065Z,54.28
2016-11-22T04:53:40.548Z,54.76
2016-11-22T04:54:53.012Z,54.66
2016-11-22T04:56:05.551Z,55.34
2016-11-22T04:57:18.540Z,55.63
2016-11-22T04:58:31.565Z,55.54
2016-11-22T04:59:43.589Z,55.73
2016-11-22T05:02:40.833Z,56.01
2016-11-22T05:03:53.855Z,55.54
2016-11-22T05:05:06.870Z,55.24
2016-11-22T05:06:19.900Z,55.34
2016-11-22T05:07:33.391Z,56.3
2016-11-22T05:08:45.882Z,55.63
2016-11-22T05:09:58.365Z,55.54
2016-11-22T05:11:11.310Z,56.11
2016-11-22T05:12:24.303Z,56.21
2016-11-22T05:13:37.277Z,56.11
2016-11-22T05:14:50.788Z,56.01
2016-11-22T05:16:03.755Z,56.3
2016-11-22T05:17:15.710Z,56.3
2016-11-22T05:18:28.703Z,56.4
2016-11-22T05:20:12.820Z,57.37
2016-11-22T05:21:24.715Z,56.98
2016-11-22T05:22:37.682Z,56.98
2016-11-22T05:23:50.714Z,56.79
2016-11-22T05:25:03.276Z,56.37
2016-11-22T05:26:16.461Z,56.4
2016-11-22T05:27:29.012Z,56.79
2016-11-22T05:28:42.027Z,56.69
2016-11-22T05:29:55.065Z,56.4
2016-11-22T05:31:07.525Z,56.11
2016-11-22T05:32:20.586Z,56.3
2016-11-22T05:33:32.516Z,56.01
2016-11-22T05:34:44.968Z,55.54
2016-11-22T05:35:56.897Z,55.82
2016-11-22T05:37:08.821Z,56.3
2016-11-22T05:38:20.254Z,55.73
2016-11-22T05:39:33.303Z,55.92
2016-11-22T05:41:00.273Z,54.86
2016-11-22T05:42:12.835Z,55.15
2016-11-22T05:43:25.325Z,55.63
2016-11-22T05:44:37.834Z,57.17
2016-11-22T05:45:51.323Z,56.98
2016-11-22T05:47:04.345Z,57.85
2016-11-22T05:48:16.335Z,57.07
2016-11-22T05:49:28.768Z,57.27
2016-11-22T05:50:40.644Z,56.49
2016-11-22T05:51:54.216Z,56.4
2016-11-22T05:53:06.681Z,56.21
2016-11-22T05:54:19.174Z,55.79
2016-11-22T05:55:32.218Z,56.09
2016-11-22T05:56:45.276Z,56.09
2016-11-22T05:57:56.732Z,56.18
2016-11-22T05:59:40.385Z,56.09
2016-11-22T06:00:52.329Z,56.01
2016-11-22T06:02:05.310Z,56.37
2016-11-22T06:03:18.336Z,55.79
2016-11-22T06:04:30.846Z,56.11
2016-11-22T06:05:43.338Z,56.18
2016-11-22T06:06:55.294Z,56.11
2016-11-22T06:08:08.796Z,55.99
2016-11-22T06:09:21.833Z,55.99
2016-11-22T06:10:34.841Z,55.73
2016-11-22T06:11:47.369Z,55.79
2016-11-22T06:13:00.845Z,56.11
2016-11-22T06:14:13.302Z,56.18
2016-11-22T06:15:25.258Z,56.3
2016-11-22T06:16:38.807Z,56.09
2016-11-22T06:17:51.318Z,56.09
2016-11-22T06:19:03.738Z,56.18
2016-11-22T06:20:16.784Z,56.18
2016-11-22T06:21:29.838Z,56.47
2016-11-22T06:22:42.316Z,56.47
2016-11-22T06:23:55.810Z,56.57
2016-11-22T06:25:08.289Z,56.27
2016-11-22T06:26:21.886Z,56.37
2016-11-22T06:27:34.829Z,56.47
2016-11-22T06:28:47.314Z,56.37
2016-11-22T06:30:00.903Z,56.66
2016-11-22T06:31:13.433Z,56.47
2016-11-22T06:32:26.507Z,56.47
2016-11-22T06:33:38.987Z,56.27
2016-11-22T06:34:52.531Z,56.47
2016-11-22T06:36:03.984Z,56.18
2016-11-22T06:37:17.053Z,56.47
2016-11-22T06:38:30.619Z,56.18
2016-11-22T06:39:43.052Z,56.27
2016-11-22T06:40:55.484Z,56.37
2016-11-22T06:43:53.117Z,56.66
2016-11-22T06:45:06.135Z,56.66
2016-11-22T06:46:50.825Z,56.76
2016-11-22T06:48:03.790Z,57.34
2016-11-22T06:49:16.237Z,57.24
2016-11-22T06:50:29.189Z,56.85
2016-11-22T06:51:42.141Z,56.95
2016-11-22T06:52:55.155Z,56.76
2016-11-22T06:54:07.634Z,57.43
2016-11-22T06:55:21.180Z,57.14
2016-11-22T06:56:34.731Z,57.34
2016-11-22T06:57:48.310Z,57.92
2016-11-22T06:59:01.857Z,58.2
2016-11-22T07:00:14.895Z,58.49
2016-11-22T07:01:27.853Z,59.07
2016-11-22T07:02:40.308Z,59.45
2016-11-22T07:03:53.358Z,59.07
2016-11-22T07:05:05.353Z,59.17
2016-11-22T07:06:18.339Z,58.88
2016-11-22T07:07:30.346Z,58.97
2016-11-22T07:08:43.316Z,58.69
2016-11-22T07:09:56.292Z,58.69
2016-11-22T07:11:09.294Z,59.36
2016-11-22T07:12:21.204Z,59.36
2016-11-22T07:13:34.202Z,59.17
2016-11-22T07:14:47.178Z,59.45
2016-11-22T07:16:00.841Z,59.36
2016-11-22T07:17:14.395Z,59.94
2016-11-22T07:18:26.851Z,60.1
2016-11-22T07:19:39.894Z,59.91
2016-11-22T07:20:53.453Z,60.1
2016-11-22T07:22:05.923Z,60.2
2016-11-22T07:23:18.858Z,60.3
2016-11-22T07:24:31.917Z,60.77
2016-11-22T07:25:44.897Z,60.87
2016-11-22T07:26:58.466Z,60.68
2016-11-22T07:28:10.968Z,60.87
2016-11-22T07:29:22.934Z,60.97
2016-11-22T07:30:35.443Z,60.77
2016-11-22T07:31:48.392Z,61.16
2016-11-22T07:33:00.829Z,61.16
2016-11-22T07:34:13.318Z,60.77
2016-11-22T07:35:25.794Z,60.49
2016-11-22T07:37:09.949Z,60.3
2016-11-22T07:38:22.496Z,60.68
2016-11-22T07:39:35.490Z,60.77
2016-11-22T07:40:48.981Z,59.91
2016-11-22T07:42:01.988Z,60.39
2016-11-22T07:43:15.502Z,60.3
2016-11-22T07:44:59.061Z,60.97
2016-11-22T07:46:11.521Z,60.87
2016-11-22T07:47:25.054Z,60.58
2016-11-22T07:49:08.672Z,60.3
2016-11-22T07:50:21.175Z,60.2
2016-11-22T07:51:34.125Z,60.97
2016-11-22T07:52:47.111Z,60.97
2016-11-22T07:53:59.042Z,60.8
2016-11-22T07:55:11.989Z,61.07
2016-11-22T07:56:24.449Z,61.55
2016-11-22T07:57:36.391Z,61.35
2016-11-22T07:58:48.938Z,61.35
2016-11-22T08:00:01.448Z,60.97
2016-11-22T08:01:13.441Z,61.65
2016-11-22T08:02:25.366Z,61.35
2016-11-22T08:03:37.335Z,61.45
2016-11-22T08:04:49.815Z,61.25
2016-11-22T08:06:01.779Z,61.07
2016-11-22T08:07:13.741Z,61.35
2016-11-22T08:08:26.769Z,61.07
2016-11-22T08:09:38.751Z,61.55
2016-11-22T08:10:52.237Z,61.07
2016-11-22T08:12:05.256Z,61.55
2016-11-22T08:13:18.290Z,60.97
2016-11-22T08:14:29.732Z,60.87
2016-11-22T08:15:42.261Z,60.87
2016-11-22T08:16:55.272Z,61.45
2016-11-22T08:18:08.216Z,61.65
2016-11-22T08:19:21.800Z,61.74
2016-11-22T08:20:35.362Z,61.93
2016-11-22T08:21:48.779Z,61.74
2016-11-22T08:23:01.295Z,61.16
2016-11-22T08:24:14.741Z,60.97
2016-11-22T08:25:27.753Z,60.97
2016-11-22T08:26:40.848Z,61.25
2016-11-22T08:27:52.864Z,61.25
2016-11-22T08:29:05.317Z,61.25
2016-11-22T08:30:18.356Z,61.07
2016-11-22T08:31:31.326Z,61.07
2016-11-22T08:32:44.295Z,60.68
2016-11-22T08:33:56.798Z,61.07
2016-11-22T08:35:08.721Z,60.77
2016-11-22T08:36:21.143Z,61.07
2016-11-22T08:37:34.160Z,61.35
2016-11-22T08:38:47.675Z,61.83
2016-11-22T08:40:00.164Z,61.74
2016-11-22T08:41:13.229Z,61.93
2016-11-22T08:42:25.690Z,62.51
2016-11-22T08:43:38.689Z,62.7
2016-11-22T08:44:51.076Z,62.8
2016-11-22T08:46:03.552Z,64.53
2016-11-22T08:47:16.600Z,66.36
2016-11-22T08:48:29.575Z,66.94
2016-11-22T08:49:42.084Z,67.29
2016-11-22T08:50:54.551Z,69.41
2016-11-22T08:52:08.105Z,70.37
2016-11-22T08:53:20.633Z,71.24
2016-11-22T08:54:32.581Z,71.53
2016-11-22T08:55:45.033Z,71.91
2016-11-22T08:56:58.124Z,72.68
2016-11-22T08:58:11.070Z,73.13
2016-11-22T08:59:24.067Z,74.67
2016-11-22T09:00:37.043Z,74.48
2016-11-22T09:01:50.069Z,75.34
2016-11-22T09:03:03.036Z,76.69
2016-11-22T09:04:15.545Z,76.56
2016-11-22T09:05:28.042Z,77.17
2016-11-22T09:06:41.152Z,77.17
2016-11-22T09:07:53.725Z,77.75
2016-11-22T09:09:06.231Z,78.71
2016-11-22T09:10:19.741Z,79.86
2016-11-22T09:11:31.240Z,80.69
2016-11-22T09:12:44.272Z,81.56
2016-11-22T09:13:56.798Z,81.17
2016-11-22T09:15:09.779Z,80.73
2016-11-22T09:16:22.756Z,80.83
2016-11-22T09:17:35.205Z,81.21
2016-11-22T09:18:47.721Z,81.5
2016-11-22T09:20:01.305Z,81.79
2016-11-22T09:21:14.877Z,82.27
2016-11-22T09:22:27.345Z,82.94
2016-11-22T09:23:40.920Z,82.94
2016-11-22T09:24:54.416Z,82.85
2016-11-22T09:26:07.916Z,82.75
2016-11-22T09:27:21.462Z,82.7
2016-11-22T09:28:35.102Z,82.89
2016-11-22T09:29:48.161Z,83.75
2016-11-22T09:31:01.745Z,84.72
2016-11-22T09:32:13.652Z,86.16
2016-11-22T09:33:27.174Z,86.93
2016-11-22T09:34:40.625Z,87.51
2016-11-22T09:35:54.164Z,87.7
2016-11-22T09:37:06.669Z,87.9
2016-11-22T09:38:19.650Z,88.09
2016-11-22T09:39:31.603Z,88.09
2016-11-22T09:40:44.069Z,87.84
2016-11-22T09:41:56.502Z,88.38
2016-11-22T09:43:10.033Z,88.28
2016-11-22T09:44:23.050Z,88.61
2016-11-22T09:45:36.607Z,88.13
2016-11-22T09:46:49.605Z,88.04
2016-11-22T09:48:02.676Z,88.04
2016-11-22T09:49:15.121Z,87.94
2016-11-22T09:50:27.655Z,89.09
2016-11-22T09:51:40.222Z,89.86
2016-11-22T09:52:53.740Z,90.11
2016-11-22T09:54:06.196Z,90.4
2016-11-22T09:55:19.185Z,90.88
2016-11-22T09:56:31.662Z,90.59
2016-11-22T09:57:43.133Z,91.6
2016-11-22T09:58:55.044Z,92.28
2016-11-22T10:00:08.064Z,92.61
2016-11-22T10:01:21.114Z,93
2016-11-22T10:02:32.545Z,92.81
2016-11-22T10:03:45.119Z,92.71
2016-11-22T10:04:57.105Z,92.18
2016-11-22T10:06:09.543Z,92.47
2016-11-22T10:07:22.598Z,92.95
2016-11-22T10:08:35.101Z,92.08
2016-11-22T10:09:47.612Z,91.8
2016-11-22T10:11:00.727Z,90.93
2016-11-22T10:12:13.756Z,91.13
2016-11-22T10:13:26.798Z,91.03
2016-11-22T10:14:39.246Z,91.17
2016-11-22T10:15:50.754Z,91.07
2016-11-22T10:17:03.869Z,91.17
2016-11-22T10:18:17.451Z,91.36
2016-11-22T10:19:30.498Z,91.17
2016-11-22T10:20:43.031Z,91.17
2016-11-22T10:21:56.607Z,91.17
2016-11-22T10:23:09.578Z,90.34
2016-11-22T10:24:23.113Z,90.06
2016-11-22T10:25:36.127Z,89.58
2016-11-22T10:26:49.634Z,89.04
2016-11-22T10:28:02.607Z,90.2
2016-11-22T10:29:16.101Z,91.02
2016-11-22T10:30:29.671Z,91.21
2016-11-22T10:31:41.075Z,90.92
2016-11-22T10:32:54.624Z,91.21
2016-11-22T10:34:08.233Z,91.5
2016-11-22T10:35:21.587Z,91.21
2016-11-22T10:36:35.101Z,91.75
2016-11-22T10:37:47.625Z,92.42
2016-11-22T10:39:00.149Z,92.22
2016-11-22T10:40:13.667Z,92.28
2016-11-22T10:41:26.747Z,92.85
2016-11-22T10:42:39.794Z,93.24
2016-11-22T10:43:52.764Z,93.62
2016-11-22T10:45:06.265Z,94.3
2016-11-22T10:46:19.294Z,94.3
2016-11-22T10:47:31.284Z,93.53
2016-11-22T10:48:43.233Z,93.62
2016-11-22T10:49:56.789Z,93.53
2016-11-22T10:51:08.660Z,93.77
2016-11-22T10:52:21.661Z,93.96
2016-11-22T10:53:35.277Z,93.09
2016-11-22T10:54:47.745Z,93.29
2016-11-22T10:56:00.723Z,92.32
2016-11-22T10:57:12.685Z,92.27
2016-11-22T10:58:25.737Z,92.08
2016-11-22T10:59:38.794Z,91.94
2016-11-22T11:00:51.769Z,91.21
2016-11-22T11:02:03.696Z,90.34
2016-11-22T11:03:16.141Z,88.27
2016-11-22T11:04:29.712Z,87.83
2016-11-22T11:05:42.338Z,88.12
2016-11-22T11:06:55.304Z,86.29
2016-11-22T11:08:07.742Z,85.27
2016-11-22T11:11:05.397Z,84.64
2016-11-22T11:12:49.537Z,84.54
2016-11-22T11:14:02.002Z,85.8
2016-11-22T11:15:14.032Z,86.52
2016-11-22T11:16:27.060Z,87.54
2016-11-22T11:17:40.120Z,86.96
2016-11-22T11:18:52.570Z,87.06
2016-11-22T11:20:05.569Z,87.83
2016-11-22T11:21:19.169Z,87.6
2016-11-22T11:22:32.209Z,86.96
2016-11-22T11:23:45.774Z,87.45
2016-11-22T11:24:58.764Z,86.68
2016-11-22T11:26:11.244Z,86.24
2016-11-22T11:27:24.206Z,85.27
2016-11-22T11:28:37.778Z,84.93
2016-11-22T11:29:51.312Z,84.06
2016-11-22T11:31:04.805Z,81.78
2016-11-22T11:32:18.339Z,81.3
2016-11-22T11:33:30.266Z,81.44
2016-11-22T11:34:43.836Z,79.99
2016-11-22T11:35:57.474Z,79.31
2016-11-22T11:37:10.989Z,79.7
2016-11-22T11:38:23.495Z,79.7
2016-11-22T11:40:07.597Z,78.54
2016-11-22T11:41:20.551Z,78.38
2016-11-22T11:42:34.088Z,78.34
2016-11-22T11:43:47.103Z,79.41
2016-11-22T11:45:00.131Z,78.83
2016-11-22T11:46:13.180Z,79.6
2016-11-22T11:47:25.170Z,79.99
2016-11-22T11:48:37.670Z,80.05
2016-11-22T11:49:51.224Z,80.14
2016-11-22T11:51:04.738Z,79.47
2016-11-22T11:52:17.232Z,80.18
2016-11-22T11:53:29.661Z,80.82
2016-11-22T11:54:42.700Z,80.24
2016-11-22T11:55:55.670Z,80.33
2016-11-22T11:57:08.135Z,79.47
2016-11-22T11:58:20.700Z,80.72
2016-11-22T11:59:33.783Z,79.47
2016-11-22T12:00:46.271Z,77.96
2016-11-22T12:01:59.898Z,77.28
2016-11-22T12:03:13.464Z,77.48
2016-11-22T12:04:25.999Z,76.84
2016-11-22T12:05:39.035Z,76.26
2016-11-22T12:06:52.258Z,75.48
2016-11-22T12:08:05.340Z,75.04
2016-11-22T12:09:18.845Z,74.94
2016-11-22T12:10:31.929Z,73.63
2016-11-22T12:11:44.977Z,73.63
2016-11-22T12:12:58.485Z,73.91
2016-11-22T12:14:11.494Z,74.3
2016-11-22T12:15:23.519Z,74.88
2016-11-22T12:16:36.046Z,74.21
2016-11-22T12:17:49.112Z,73.66
2016-11-22T12:19:02.661Z,73.08
2016-11-22T12:20:15.682Z,71.56
2016-11-22T12:21:28.168Z,72.63
2016-11-22T12:22:41.368Z,72.24
2016-11-22T12:24:26.008Z,71.95
2016-11-22T12:25:39.527Z,72.02
2016-11-22T12:26:52.577Z,72.46
2016-11-22T12:28:05.128Z,72.21
2016-11-22T12:29:18.631Z,72.34
2016-11-22T12:30:31.096Z,71.66
2016-11-22T12:31:44.035Z,71.76
2016-11-22T12:32:57.561Z,71.56
2016-11-22T12:34:08.977Z,72.44
2016-11-22T12:35:22.062Z,72.98
2016-11-22T12:36:34.555Z,72.53
2016-11-22T12:37:47.596Z,72.21
2016-11-22T12:39:00.637Z,72.79
2016-11-22T12:40:14.273Z,72.5
2016-11-22T12:41:27.817Z,72.53
2016-11-22T12:42:41.412Z,70.7
2016-11-22T12:43:53.842Z,69.85
2016-11-22T12:45:06.892Z,69.21
2016-11-22T12:46:19.977Z,67.95
2016-11-22T12:47:31.945Z,67.99
2016-11-22T12:48:45.005Z,67.89
2016-11-22T12:49:58.569Z,68.18
2016-11-22T12:51:12.151Z,67.76
2016-11-22T12:52:25.239Z,67.47
2016-11-22T12:53:38.802Z,67.69
2016-11-22T12:54:52.336Z,67.14
2016-11-22T12:58:21.229Z,66.56
2016-11-22T12:59:34.735Z,66.79
2016-11-22T13:00:47.725Z,68.02
2016-11-22T13:02:32.324Z,66.27
2016-11-22T13:03:45.375Z,66.37
2016-11-22T13:04:58.434Z,66.56
2016-11-22T13:06:11.442Z,65.79
2016-11-22T13:07:24.482Z,65.59
2016-11-22T13:08:38.002Z,65.92
2016-11-22T13:09:51.003Z,66.17
2016-11-22T13:11:03.495Z,65.43
2016-11-22T13:12:16.543Z,64.49
2016-11-22T13:13:29.631Z,63.07
2016-11-22T13:14:42.703Z,62.41
2016-11-22T13:15:54.643Z,62.23
2016-11-22T13:17:07.748Z,61.74
2016-11-22T13:18:20.678Z,61.77
2016-11-22T13:19:33.623Z,62.06
2016-11-22T13:20:46.737Z,62.87
2016-11-22T13:21:59.268Z,63.17
2016-11-22T13:23:12.769Z,62.68
2016-11-22T13:24:25.801Z,62.77
2016-11-22T13:25:38.320Z,62.29
2016-11-22T13:26:51.898Z,62.97
2016-11-22T13:28:04.885Z,63.36
2016-11-22T13:29:18.454Z,63.26
2016-11-22T13:30:31.481Z,63.94
2016-11-22T13:31:45.114Z,64.23
2016-11-22T13:32:58.855Z,65.72
2016-11-22T13:34:12.629Z,66.4
2016-11-22T13:35:25.602Z,66.08
2016-11-22T13:36:38.584Z,66.37
2016-11-22T13:37:51.868Z,65.05
2016-11-22T13:39:05.475Z,65.24
2016-11-22T13:40:18.509Z,65.08
2016-11-22T13:41:32.169Z,65.37
2016-11-22T13:42:44.793Z,65.53
2016-11-22T13:43:58.397Z,65.05
2016-11-22T13:45:09.830Z,65.33
2016-11-22T13:46:21.258Z,66.76
2016-11-22T13:47:34.249Z,67.34
2016-11-22T13:48:45.650Z,66.56
2016-11-22T13:49:58.738Z,66.86
2016-11-22T13:51:10.763Z,66.47
2016-11-22T13:52:24.337Z,65.37
2016-11-22T13:53:37.442Z,65.37
2016-11-22T13:54:50.562Z,64.33
2016-11-22T13:56:03.789Z,65.37
2016-11-22T13:57:16.795Z,65.56
2016-11-22T13:58:28.757Z,65.2
2016-11-22T13:59:41.269Z,64.53
2016-11-22T14:00:54.859Z,65.75
2016-11-22T14:02:08.558Z,64.59
2016-11-22T14:03:20.492Z,64.04
2016-11-22T14:04:33.089Z,63.36
2016-11-22T14:05:46.669Z,64.14
2016-11-22T14:06:59.208Z,63.39
2016-11-22T14:08:12.407Z,62.9
2016-11-22T14:09:25.719Z,62.06
2016-11-22T14:10:39.248Z,62.93
2016-11-22T14:11:51.874Z,64.07
2016-11-22T14:13:05.450Z,65.3
2016-11-22T14:14:18.989Z,65.63
2016-11-22T14:15:32.319Z,65.72
2016-11-22T14:16:44.818Z,66.5
2016-11-22T14:17:57.838Z,66.02
2016-11-22T14:19:11.060Z,66.4
2016-11-22T14:20:24.724Z,66.4
2016-11-22T14:21:36.701Z,65.17
2016-11-22T14:22:49.717Z,65.27
2016-11-22T14:24:03.269Z,65.24
2016-11-22T14:25:16.551Z,65.72
2016-11-22T14:26:30.412Z,65.89
2016-11-22T14:27:43.475Z,66.17
2016-11-22T14:28:56.500Z,66.27
2016-11-22T14:30:08.995Z,66.66
2016-11-22T14:31:22.587Z,65.79
2016-11-22T14:32:35.027Z,64.95
2016-11-22T14:33:47.465Z,64.98
2016-11-22T14:34:59.983Z,63.81
2016-11-22T14:36:12.458Z,64.01
2016-11-22T14:37:25.517Z,64.49
2016-11-22T14:39:10.242Z,65.08
2016-11-22T14:40:23.253Z,65.43
2016-11-22T14:41:35.277Z,65.95
2016-11-22T14:42:48.828Z,65.85
2016-11-22T14:44:01.306Z,65.66
2016-11-22T14:45:14.944Z,65.37
2016-11-22T14:46:26.911Z,65.17
2016-11-22T14:47:40.462Z,65.92
2016-11-22T14:48:52.437Z,65.53
2016-11-22T14:50:04.923Z,65.92
2016-11-22T14:51:17.951Z,66.5
2016-11-22T14:52:31.113Z,65.82
2016-11-22T14:53:44.147Z,65.92
2016-11-22T14:54:57.280Z,65.75
2016-11-22T14:56:09.262Z,65.56
2016-11-22T14:57:22.294Z,66.34
2016-11-22T14:58:34.749Z,66.89
2016-11-22T14:59:47.251Z,66.89
2016-11-22T15:01:00.380Z,66.79
2016-11-22T15:02:13.364Z,67.37
2016-11-22T15:03:27.070Z,68.02
2016-11-22T15:04:40.814Z,68.02
2016-11-22T15:05:54.055Z,67.63
2016-11-22T15:07:07.680Z,67.08
2016-11-22T15:08:20.267Z,67.86
2016-11-22T15:09:33.242Z,68.51
2016-11-22T15:10:46.924Z,68.12
2016-11-22T15:11:59.912Z,68.51
2016-11-22T15:13:12.934Z,68.99
2016-11-22T15:14:25.947Z,68.6
2016-11-22T15:15:38.936Z,67.83
2016-11-22T15:16:51.549Z,68.02
2016-11-22T15:18:03.984Z,67.86
2016-11-22T15:19:16.983Z,67.18
2016-11-22T15:20:30.247Z,67.28
2016-11-22T15:21:42.733Z,67.57
2016-11-22T15:22:55.227Z,68.02
2016-11-22T15:24:07.293Z,67.54
2016-11-22T15:25:19.784Z,68.12
2016-11-22T15:26:33.299Z,68.31
2016-11-22T15:27:46.311Z,67.86
2016-11-22T15:28:59.684Z,68.54
2016-11-22T15:30:12.783Z,67.66
2016-11-22T15:31:25.757Z,68.02
2016-11-22T15:32:39.288Z,68.35
2016-11-22T15:33:53.125Z,68.99
2016-11-22T15:35:06.776Z,68.41
2016-11-22T15:36:19.277Z,69.28
2016-11-22T15:37:32.248Z,69.96
2016-11-22T15:38:44.683Z,70.93
2016-11-22T15:39:58.200Z,70.93
2016-11-22T15:41:11.414Z,70.73
2016-11-22T15:42:23.918Z,70.67
2016-11-22T15:43:36.901Z,71.26
2016-11-22T15:44:50.497Z,71.9
2016-11-22T15:46:04.246Z,72.87
2016-11-22T15:47:17.871Z,72.99
2016-11-22T15:48:31.724Z,72.61
2016-11-22T15:49:44.824Z,72.74
2016-11-22T15:50:57.875Z,71.86
2016-11-22T15:52:10.990Z,73.13
2016-11-22T15:53:24.086Z,73.58
2016-11-22T15:54:36.621Z,73.96
2016-11-22T15:55:49.642Z,74.29
2016-11-22T15:57:03.235Z,74.45
2016-11-22T15:58:16.881Z,75.28
2016-11-22T15:59:29.996Z,75.38
2016-11-22T16:00:41.449Z,74.8